createdAt,value
2022-12-04T00:13:38.748Z,80.32
2022-12-04T00:16:09.793Z,80.09
2022-12-04T00:18:38.850Z,80.16
2022-12-04T00:27:43.792Z,80.67
2022-12-04T00:33:22.982Z,80.32
2022-12-04T00:35:59.414Z,80.31
2022-12-04T00:38:26.640Z,80.40
2022-12-04T00:41:00.703Z,80.18
2022-12-04T00:46:55.652Z,80.35
2022-12-04T00:55:32.785Z,80.68
2022-12-04T00:58:12.341Z,80.52
2022-12-04T01:03:39.843Z,80.78
2022-12-04T01:06:29.690Z,80.76
2022-12-04T01:09:00.616Z,80.14
2022-12-04T01:38:15.187Z,81.18
2022-12-04T01:40:50.736Z,81.35
2022-12-04T01:43:18.981Z,81.42
2022-12-04T01:58:07.586Z,81.16
2022-12-04T02:03:40.597Z,81.25
2022-12-04T02:06:12.628Z,81.09
2022-12-04T02:08:42.525Z,81.42
2022-12-04T02:20:30.156Z,81.17
2022-12-04T02:26:46.891Z,81.22
2022-12-04T02:29:39.633Z,80.94
2022-12-04T02:57:03.765Z,81.17
2022-12-04T02:59:59.963Z,81.09
2022-12-04T03:02:36.336Z,81.15
2022-12-04T03:15:25.181Z,81.12
2022-12-04T03:23:58.089Z,80.87
2022-12-04T04:01:10.587Z,81.39
2022-12-04T04:06:51.905Z,81.26
2022-12-04T04:12:18.752Z,81.31
2022-12-04T05:53:28.112Z,81.92
2022-12-04T05:58:43.858Z,81.97
2022-12-04T06:02:22.623Z,82.26
2022-12-04T06:14:01.202Z,82.51
2022-12-04T06:36:17.637Z,82.38
2022-12-04T07:08:11.767Z,82.82
2022-12-04T07:13:53.177Z,83.00
2022-12-04T07:19:30.935Z,82.85
2022-12-04T07:30:39.153Z,83.04
2022-12-04T07:36:09.231Z,83.25
2022-12-04T07:38:35.651Z,83.31
2022-12-04T07:41:04.233Z,83.15
2022-12-04T07:43:31.237Z,82.91
2022-12-04T07:45:58.281Z,83.18
2022-12-04T07:48:30.228Z,83.03
2022-12-04T07:51:04.640Z,83.36
2022-12-04T07:53:31.534Z,83.13
2022-12-04T07:55:58.101Z,83.40
2022-12-04T07:58:24.550Z,83.34
2022-12-04T08:00:51.048Z,83.39
2022-12-04T08:03:17.511Z,83.42
2022-12-04T08:05:43.912Z,83.42
2022-12-04T08:08:10.424Z,83.42
2022-12-04T08:10:40.293Z,83.40
2022-12-04T08:13:07.042Z,83.30
2022-12-04T08:15:34.807Z,83.00
2022-12-04T08:18:01.253Z,83.12
2022-12-04T08:20:27.746Z,83.34
2022-12-04T08:22:54.157Z,83.45
2022-12-04T08:25:20.603Z,83.48
2022-12-04T08:27:47.908Z,83.56
2022-12-04T08:30:14.427Z,83.54
2022-12-04T08:32:40.941Z,83.42
2022-12-04T08:35:07.727Z,83.33
2022-12-04T08:37:34.169Z,83.44
2022-12-04T08:40:00.642Z,83.56
2022-12-04T08:42:27.121Z,83.48
2022-12-04T08:44:53.628Z,83.73
2022-12-04T08:47:20.108Z,83.94
2022-12-04T08:49:46.505Z,83.99
2022-12-04T08:52:12.920Z,84.09
2022-12-04T08:54:39.357Z,84.00
2022-12-04T08:57:05.800Z,83.94
2022-12-04T08:59:32.364Z,83.72
2022-12-04T09:01:58.880Z,83.61
2022-12-04T09:04:25.473Z,83.71
2022-12-04T09:06:51.949Z,83.55
2022-12-04T09:09:18.366Z,83.62
2022-12-04T09:11:46.102Z,83.66
2022-12-04T09:14:12.633Z,83.70
2022-12-04T09:16:39.058Z,83.55
2022-12-04T09:19:05.608Z,83.19
2022-12-04T09:21:32.055Z,83.50
2022-12-04T09:23:59.468Z,83.38
2022-12-04T09:26:29.177Z,83.65
2022-12-04T09:28:56.581Z,83.75
2022-12-04T09:31:24.099Z,83.74
2022-12-04T09:33:51.222Z,84.01
2022-12-04T09:36:17.809Z,83.86
2022-12-04T09:38:54.194Z,83.74
2022-12-04T09:41:49.642Z,83.90
2022-12-04T09:44:50.138Z,83.83
2022-12-04T09:47:24.921Z,83.90
2022-12-04T09:50:00.351Z,83.87
2022-12-04T09:52:56.066Z,83.69
2022-12-04T09:55:24.131Z,83.74
2022-12-04T09:57:55.853Z,83.70
2022-12-04T10:00:26.072Z,83.91
2022-12-04T10:02:57.656Z,83.86
2022-12-04T10:05:46.342Z,83.98
2022-12-04T10:08:21.484Z,83.79
2022-12-04T10:10:57.481Z,83.84
2022-12-04T10:13:23.835Z,84.26
2022-12-04T10:16:08.948Z,84.34
2022-12-04T10:18:42.195Z,84.34
2022-12-04T10:21:30.095Z,84.70
2022-12-04T10:24:10.901Z,84.44
2022-12-04T10:26:43.340Z,84.28
2022-12-04T10:29:18.596Z,84.41
2022-12-04T10:31:46.246Z,84.71
2022-12-04T10:34:18.176Z,84.79
2022-12-04T10:36:50.555Z,84.75
2022-12-04T10:39:25.462Z,84.52
2022-12-04T10:42:05.405Z,84.56
2022-12-04T10:44:32.026Z,84.55
2022-12-04T10:47:01.090Z,84.82
2022-12-04T10:49:29.553Z,84.78
2022-12-04T10:51:56.431Z,84.51
2022-12-04T10:54:32.895Z,84.54
2022-12-04T10:57:07.849Z,84.79
2022-12-04T10:59:34.809Z,84.93
2022-12-04T11:02:12.370Z,84.99
2022-12-04T11:04:40.175Z,85.23
2022-12-04T11:07:08.834Z,85.29
2022-12-04T11:09:35.415Z,85.50
2022-12-04T11:12:09.644Z,85.50
2022-12-04T11:14:36.240Z,85.52
2022-12-04T11:17:06.085Z,85.78
2022-12-04T11:19:36.072Z,85.64
2022-12-04T11:22:16.711Z,85.75
2022-12-04T11:24:50.115Z,85.56
2022-12-04T11:27:22.961Z,85.49
2022-12-04T11:29:50.088Z,85.40
2022-12-04T11:32:29.408Z,85.45
2022-12-04T11:34:57.161Z,85.49
2022-12-04T11:37:34.538Z,85.31
2022-12-04T11:40:04.138Z,85.35
2022-12-04T11:42:31.673Z,85.16
2022-12-04T11:45:19.857Z,84.94
2022-12-04T11:48:01.883Z,85.32
2022-12-04T11:50:57.823Z,85.17
2022-12-04T11:53:36.823Z,85.37
2022-12-04T11:56:26.893Z,85.76
2022-12-04T11:58:56.337Z,85.90
2022-12-04T12:01:38.081Z,86.04
2022-12-04T12:04:34.052Z,86.15
2022-12-04T12:07:33.615Z,86.31
2022-12-04T12:10:11.764Z,86.29
2022-12-04T12:12:54.771Z,86.60
2022-12-04T12:15:40.982Z,86.65
2022-12-04T12:18:20.977Z,86.37
2022-12-04T12:20:58.591Z,86.50
2022-12-04T12:23:50.130Z,86.60
2022-12-04T12:26:18.246Z,86.84
2022-12-04T12:28:53.774Z,86.92
2022-12-04T12:31:42.204Z,86.89
2022-12-04T12:34:13.220Z,87.34
2022-12-04T12:36:44.168Z,86.95
2022-12-04T12:39:56.865Z,87.11
2022-12-04T12:42:27.240Z,87.34
2022-12-04T12:45:04.907Z,87.41
2022-12-04T12:47:38.947Z,87.68
2022-12-04T12:50:13.169Z,87.62
2022-12-04T12:52:53.744Z,87.42
2022-12-04T12:55:24.802Z,87.48
2022-12-04T12:58:09.524Z,87.26
2022-12-04T13:00:48.983Z,87.30
2022-12-04T13:03:35.701Z,87.55
2022-12-04T13:06:06.321Z,87.52
2022-12-04T13:09:11.616Z,87.71
2022-12-04T13:11:38.849Z,87.70
2022-12-04T13:14:05.464Z,88.03
2022-12-04T13:16:45.000Z,88.48
2022-12-04T13:19:31.438Z,88.73
2022-12-04T13:22:18.856Z,88.99
2022-12-04T13:24:45.195Z,88.94
2022-12-04T13:27:27.376Z,89.00
2022-12-04T13:30:03.297Z,88.74
2022-12-04T13:33:06.239Z,88.96
2022-12-04T13:35:55.534Z,89.06
2022-12-04T13:38:21.835Z,88.86
2022-12-04T13:40:57.374Z,88.81
2022-12-04T13:43:34.197Z,88.76
2022-12-04T13:46:03.470Z,88.58
2022-12-04T13:48:40.128Z,88.79
2022-12-04T13:51:45.548Z,88.45
2022-12-04T13:54:11.940Z,88.10
2022-12-04T13:56:46.699Z,88.39
2022-12-04T13:59:28.383Z,88.41
2022-12-04T14:01:57.143Z,88.26
2022-12-04T14:04:46.480Z,88.27
2022-12-04T14:07:42.916Z,87.99
2022-12-04T14:10:15.166Z,87.76
2022-12-04T14:12:57.302Z,87.67
2022-12-04T14:15:26.246Z,87.69
2022-12-04T14:18:00.352Z,87.67
2022-12-04T14:20:29.743Z,87.72
2022-12-04T14:23:06.865Z,87.47
2022-12-04T14:25:36.631Z,87.10
2022-12-04T14:28:14.239Z,87.25
2022-12-04T14:30:42.380Z,86.95
2022-12-04T14:33:22.357Z,86.91
2022-12-04T14:36:17.916Z,86.68
2022-12-04T14:38:46.380Z,86.84
2022-12-04T14:41:12.892Z,86.90
2022-12-04T14:43:40.978Z,86.95
2022-12-04T14:46:35.104Z,86.87
2022-12-04T14:49:14.733Z,86.84
2022-12-04T14:51:54.877Z,86.66
2022-12-04T14:54:31.222Z,86.63
2022-12-04T14:57:12.868Z,86.60
2022-12-04T14:59:47.673Z,86.32
2022-12-04T15:02:19.749Z,86.51
2022-12-04T15:04:47.659Z,86.48
2022-12-04T15:07:29.703Z,86.38
2022-12-04T15:10:19.939Z,86.21
2022-12-04T15:12:54.135Z,86.21
2022-12-04T15:15:28.771Z,86.31
2022-12-04T15:18:04.687Z,86.17
2022-12-04T15:20:42.598Z,86.18
2022-12-04T15:23:13.926Z,85.88
2022-12-04T15:25:44.510Z,86.13
2022-12-04T15:28:17.515Z,85.98
2022-12-04T15:30:45.135Z,85.74
2022-12-04T15:33:20.903Z,85.63
2022-12-04T15:35:52.630Z,85.83
2022-12-04T15:38:19.304Z,86.26
2022-12-04T15:40:54.805Z,85.85
2022-12-04T15:43:27.477Z,86.30
2022-12-04T15:45:54.124Z,86.42
2022-12-04T15:48:29.209Z,86.38
2022-12-04T15:51:01.347Z,86.29
2022-12-04T15:53:30.424Z,86.54
2022-12-04T15:56:02.687Z,86.62
2022-12-04T15:58:31.761Z,86.79
2022-12-04T16:01:04.829Z,86.51
2022-12-04T16:03:43.633Z,86.27
2022-12-04T16:06:15.724Z,86.43
2022-12-04T16:08:44.236Z,86.25
2022-12-04T16:11:20.177Z,86.41
2022-12-04T16:13:48.695Z,86.45
2022-12-04T16:16:21.308Z,86.59
2022-12-04T16:18:48.164Z,86.90
2022-12-04T16:21:17.114Z,86.71
2022-12-04T16:23:43.791Z,86.79
2022-12-04T16:26:14.749Z,86.77
2022-12-04T16:28:41.719Z,86.67
2022-12-04T16:31:11.033Z,86.91
2022-12-04T16:33:37.643Z,86.73
2022-12-04T16:36:05.079Z,86.68
2022-12-04T16:38:31.486Z,86.52
2022-12-04T16:40:57.994Z,86.11
2022-12-04T16:43:24.364Z,86.33
2022-12-04T16:45:54.471Z,86.30
2022-12-04T16:48:20.994Z,86.58
2022-12-04T16:50:47.791Z,86.48
2022-12-04T16:53:22.495Z,86.81
2022-12-04T16:55:50.695Z,86.74
2022-12-04T16:58:18.022Z,86.62
2022-12-04T17:00:49.303Z,86.89
2022-12-04T17:03:23.829Z,86.83
2022-12-04T17:05:50.421Z,87.22
2022-12-04T17:08:16.978Z,87.08
2022-12-04T17:10:43.471Z,87.10
2022-12-04T17:13:09.888Z,86.36
2022-12-04T17:15:36.318Z,86.65
2022-12-04T17:18:08.978Z,87.02
2022-12-04T17:20:40.470Z,87.27
2022-12-04T17:23:06.858Z,87.44
2022-12-04T17:25:33.341Z,87.50
2022-12-04T17:28:00.842Z,87.27
2022-12-04T17:30:31.377Z,87.15
2022-12-04T17:33:00.985Z,87.20
2022-12-04T17:35:27.405Z,87.34
2022-12-04T17:37:53.785Z,87.56
2022-12-04T17:40:20.266Z,87.48
2022-12-04T17:42:46.709Z,87.89
2022-12-04T17:45:14.268Z,87.83
2022-12-04T17:47:40.864Z,87.77
2022-12-04T17:50:07.962Z,87.76
2022-12-04T17:52:34.349Z,88.17
2022-12-04T17:55:00.828Z,88.13
2022-12-04T17:57:27.817Z,88.15
2022-12-04T17:59:54.543Z,88.19
2022-12-04T18:02:21.023Z,88.34
2022-12-04T18:04:47.455Z,88.06
2022-12-04T18:07:13.893Z,88.18
2022-12-04T18:09:40.304Z,88.19
2022-12-04T18:12:06.717Z,87.59
2022-12-04T18:14:35.056Z,87.96
2022-12-04T18:17:02.647Z,87.96
2022-12-04T18:19:30.018Z,88.07
2022-12-04T18:21:56.849Z,88.13
2022-12-04T18:24:24.293Z,87.98
2022-12-04T18:26:51.072Z,88.10
2022-12-04T18:29:23.594Z,88.17
2022-12-04T18:31:51.016Z,88.39
2022-12-04T18:34:19.397Z,88.47
2022-12-04T18:36:46.023Z,88.51
2022-12-04T18:39:14.996Z,88.86
2022-12-04T18:41:41.885Z,88.69
2022-12-04T18:44:08.569Z,89.39
2022-12-04T18:46:35.508Z,89.09
2022-12-04T18:49:02.126Z,88.90
2022-12-04T18:51:34.435Z,88.76
2022-12-04T18:54:06.534Z,88.77
2022-12-04T18:56:35.155Z,88.60
2022-12-04T18:59:09.929Z,88.49
2022-12-04T19:01:36.485Z,88.45
2022-12-04T19:04:05.477Z,88.31
2022-12-04T19:06:34.174Z,88.23
2022-12-04T19:09:04.198Z,88.38
2022-12-04T19:11:30.946Z,88.72
2022-12-04T19:13:58.324Z,88.69
2022-12-04T19:16:25.415Z,88.53
2022-12-04T19:18:51.991Z,88.62
2022-12-04T19:21:18.393Z,88.64
2022-12-04T19:23:51.016Z,88.90
2022-12-04T19:26:18.119Z,89.01
2022-12-04T19:28:44.744Z,88.53
2022-12-04T19:31:19.321Z,88.83
2022-12-04T19:33:45.841Z,88.78
2022-12-04T19:36:13.647Z,88.69
2022-12-04T19:38:40.687Z,88.65
2022-12-04T19:41:14.120Z,88.79
2022-12-04T19:43:43.124Z,88.94
2022-12-04T19:46:10.915Z,88.63
2022-12-04T19:48:37.929Z,88.33
2022-12-04T19:51:06.704Z,88.60
2022-12-04T19:53:37.739Z,88.67
2022-12-04T19:56:15.809Z,88.49
2022-12-04T19:58:42.482Z,88.74
2022-12-04T20:01:12.807Z,88.76
2022-12-04T20:03:39.509Z,89.05
2022-12-04T20:06:08.771Z,89.26
2022-12-04T20:08:35.356Z,89.04
2022-12-04T20:11:11.609Z,89.29
2022-12-04T20:13:41.762Z,89.44
2022-12-04T20:16:10.571Z,89.44
2022-12-04T20:18:38.892Z,89.46
2022-12-04T20:21:10.837Z,89.29
2022-12-04T20:23:38.367Z,89.37
2022-12-04T20:26:09.725Z,89.22
2022-12-04T20:28:36.706Z,89.15
2022-12-04T20:31:13.942Z,88.78
2022-12-04T20:33:41.157Z,89.01
2022-12-04T20:36:08.853Z,88.80
2022-12-04T20:38:35.419Z,88.36
2022-12-04T20:41:03.420Z,88.37
2022-12-04T20:43:29.897Z,88.39
2022-12-04T20:45:56.636Z,88.33
2022-12-04T20:48:23.145Z,88.15
2022-12-04T20:50:49.549Z,88.33
2022-12-04T20:53:15.976Z,88.57
2022-12-04T20:55:42.381Z,88.83
2022-12-04T20:58:08.754Z,88.17
2022-12-04T21:00:35.216Z,88.73
2022-12-04T21:03:01.704Z,88.72
2022-12-04T21:05:28.220Z,88.69
2022-12-04T21:07:54.677Z,88.67
2022-12-04T21:10:21.147Z,88.93
2022-12-04T21:13:06.146Z,89.09
2022-12-04T21:15:51.278Z,89.01
2022-12-04T21:18:17.803Z,89.30
2022-12-04T21:20:44.242Z,89.26
2022-12-04T21:23:10.820Z,89.26
2022-12-04T21:25:37.228Z,89.25
2022-12-04T21:28:03.613Z,89.16
2022-12-04T21:30:30.152Z,89.11
2022-12-04T21:32:56.542Z,89.19
2022-12-04T21:35:22.978Z,89.09
2022-12-04T21:37:49.431Z,88.91
2022-12-04T21:40:15.969Z,88.99
2022-12-04T21:42:43.871Z,88.87
2022-12-04T21:45:10.586Z,88.64
2022-12-04T21:47:37.460Z,88.56
2022-12-04T21:50:05.406Z,88.75
2022-12-04T21:52:35.697Z,88.52
2022-12-04T21:55:02.098Z,88.56
2022-12-04T21:57:29.023Z,88.74
2022-12-04T21:59:55.537Z,88.68
2022-12-04T22:02:22.163Z,88.74
2022-12-04T22:04:48.663Z,88.89
2022-12-04T22:07:15.555Z,88.95
2022-12-04T22:09:41.976Z,88.72
2022-12-04T22:12:33.117Z,88.52
2022-12-04T22:14:54.794Z,88.62
2022-12-04T22:17:21.202Z,88.84
2022-12-04T22:19:47.640Z,88.67
2022-12-04T22:22:14.088Z,88.82
2022-12-04T22:24:41.606Z,88.89
2022-12-04T22:27:14.695Z,89.01
2022-12-04T22:29:50.198Z,88.89
2022-12-04T22:32:27.520Z,88.81
2022-12-04T22:34:53.933Z,88.94
2022-12-04T22:37:20.394Z,88.91
2022-12-04T22:39:46.778Z,89.05
2022-12-04T22:42:13.264Z,88.96
2022-12-04T22:44:39.704Z,88.85
2022-12-04T22:47:06.152Z,88.75
2022-12-04T22:49:32.675Z,88.93
2022-12-04T22:51:59.185Z,89.52
